Main page
METAR-TAF:

METAR-TAF

Airports :

Johnson County Airport

Buffalo, Wyoming, United States

latitude: 44-22-53N, longitude: 106-43-08W, elevation: 4966 ft

Current weather observation

The report was made 35 minutes ago, at 06:53 UTC
Wind 7 mph from the South
Temperature 64°F
Humidity 77%
Pressure 30.25 in. Hg
Visibility: 10 miles
Scattered clouds at a height of 11000 ft

METAR: KBYG 300653Z AUTO 19006KT 10SM SCT110 18/14 A3025 RMK AO2 SLP187 T01780144 402720161

Time: 01:28 (07:28 UTC)


TAF: missing

Weather observations and forecasts of more than 4000 airports (METAR and TAF reports).

The available stations are represented by yellow and red dots on the map.

Hover mouse over dot to see the name of the station.

Then click to see weather observations and forecasts.

To change the map : click on the green buttons with a black cross to zoom in, on the green button with a dash to zoom out, or on the green arrows for adjacent maps.


METAR-TAF: